Time;durP1;ratioP1;P1;durP2;ratioP2;P2;SDS_P1;SDS_P2;PMS_P1;PMS_P2;Temp;Humidity;BMP_temperature;BMP_pressure;BME280_temperature;BME280_humidity;BME280_pressure;Samples;Min_cycle;Max_cycle;Signal;HPM_P1;HPM_P2
2023/07/31 00:00:16;;;;;;;0.10;0.10;;;20.70;67.60;;;;;;5095781;28;20061;-79
2023/07/31 00:02:42;;;;;;;;;;;20.70;67.70;;;;;;5079525;28;20487;-75
2023/07/31 00:05:09;;;;;;;0.32;0.30;;;20.60;67.10;;;;;;5095894;28;19920;-74
2023/07/31 00:07:56;;;;;;;0.43;0.20;;;20.60;67.50;;;;;;5096164;28;20115;-79
2023/07/31 00:10:22;;;;;;;0.10;0.10;;;20.60;67.60;;;;;;5095561;28;20131;-75
2023/07/31 00:15:35;;;;;;;0.20;0.20;;;20.60;67.70;;;;;;5036555;28;19916;-80
2023/07/31 00:18:01;;;;;;;;;;;20.60;68.60;;;;;;5034759;28;20573;-74
2023/07/31 00:20:27;;;;;;;0.20;0.20;;;20.60;67.90;;;;;;5034050;28;19924;-74
2023/07/31 00:22:53;;;;;;;0.20;0.20;;;20.50;68.20;;;;;;5034161;28;20037;-79
2023/07/31 00:25:19;;;;;;;;;;;20.40;68.20;;;;;;5033906;28;20033;-80
2023/07/31 00:27:46;;;;;;;0.20;0.20;;;20.40;68.00;;;;;;5050969;28;19921;-74
2023/07/31 00:30:12;;;;;;;0.10;0.10;;;20.40;68.20;;;;;;5033642;28;20036;-79
2023/07/31 00:32:38;;;;;;;0.38;0.38;;;20.40;68.30;;;;;;5034096;28;20146;-75
2023/07/31 00:35:04;;;;;;;0.30;0.30;;;20.40;68.50;;;;;;5033905;28;20033;-79
2023/07/31 00:37:36;;;;;;;0.52;0.20;;;20.30;68.30;;;;;;5033937;28;20512;-74
2023/07/31 00:40:03;;;;;;;1.75;0.82;;;20.30;68.50;;;;;;5050776;28;20047;-80
2023/07/31 00:42:29;;;;;;;0.10;0.10;;;20.20;67.80;;;;;;5033672;28;20075;-80
2023/07/31 00:44:55;;;;;;;;;;;20.20;68.50;;;;;;5034739;28;20040;-78
2023/07/31 00:47:24;;;;;;;0.30;0.30;;;20.10;68.40;;;;;;5033436;28;19924;-74
2023/07/31 00:49:50;;;;;;;0.10;0.10;;;20.00;68.50;;;;;;5001064;28;20045;-75
2023/07/31 00:52:17;;;;;;;0.30;0.30;;;19.90;68.90;;;;;;5053892;28;20458;-75
2023/07/31 00:54:43;;;;;;;0.28;0.20;;;19.90;68.80;;;;;;5095344;28;20028;-75
2023/07/31 00:57:11;;;;;;;0.15;0.15;;;19.80;68.70;;;;;;5094925;28;20468;-80
2023/07/31 00:59:40;;;;;;;0.30;0.30;;;19.80;68.70;;;;;;5095467;28;20766;-79
2023/07/31 01:02:06;;;;;;;0.10;0.10;;;19.70;69.00;;;;;;5113004;28;20073;-80
2023/07/31 01:04:35;;;;;;;0.20;0.20;;;19.60;68.50;;;;;;5095061;28;20034;-74
2023/07/31 01:07:25;;;;;;;0.20;0.20;;;19.60;68.50;;;;;;5094782;28;20031;-79
2023/07/31 01:10:31;;;;;;;0.80;0.22;;;19.60;69.10;;;;;;5094944;28;20076;-75
2023/07/31 01:12:58;;;;;;;0.30;0.30;;;19.60;68.90;;;;;;5095253;28;20027;-75
2023/07/31 01:15:24;;;;;;;0.10;0.10;;;19.60;69.30;;;;;;5113123;28;20035;-79
2023/07/31 01:18:08;;;;;;;;;;;19.60;69.30;;;;;;5095601;28;20084;-75
2023/07/31 01:20:37;;;;;;;0.52;0.43;;;19.60;68.90;;;;;;5097283;28;20003;-79
2023/07/31 01:23:22;;;;;;;0.10;0.10;;;19.50;69.00;;;;;;5113244;28;20274;-75
2023/07/31 01:26:27;;;;;;;0.30;0.30;;;19.60;69.00;;;;;;5112661;28;20031;-75
2023/07/31 01:29:54;;;;;;;0.20;0.20;;;19.70;69.00;;;;;;5094985;28;20042;-75
2023/07/31 01:32:22;;;;;;;0.70;0.20;;;19.70;69.00;;;;;;5112518;28;20467;-79
2023/07/31 01:34:49;;;;;;;0.38;0.20;;;19.80;69.00;;;;;;5077746;28;20035;-74
2023/07/31 01:37:15;;;;;;;0.30;0.30;;;19.80;69.20;;;;;;5112669;28;20032;-75
2023/07/31 01:39:41;;;;;;;;;;;19.80;69.30;;;;;;5113762;28;20036;-75
2023/07/31 01:42:07;;;;;;;0.10;0.10;;;19.80;69.20;;;;;;5094118;28;19956;-79
2023/07/31 01:44:52;;;;;;;;;;;19.80;69.50;;;;;;5095519;28;20035;-79
2023/07/31 01:47:38;;;;;;;0.20;0.20;;;19.80;69.20;;;;;;5112723;28;20280;-75
2023/07/31 01:50:05;;;;;;;0.10;0.10;;;19.90;69.50;;;;;;5029894;28;20041;-74
2023/07/31 01:52:40;;;;;;;0.80;0.25;;;19.90;69.30;;;;;;5013125;28;20038;-80
2023/07/31 01:55:06;;;;;;;0.30;0.30;;;20.00;69.50;;;;;;5013019;28;20042;-75
2023/07/31 01:57:33;;;;;;;0.10;0.10;;;20.00;68.80;;;;;;5029838;28;20034;-80
2023/07/31 01:59:59;;;;;;;0.43;0.40;;;20.00;69.80;;;;;;5013175;28;20046;-80
2023/07/31 02:02:28;;;;;;;0.10;0.10;;;20.00;69.20;;;;;;4996291;28;20095;-79
2023/07/31 02:04:54;;;;;;;0.30;0.30;;;20.00;69.60;;;;;;5013278;28;20050;-80
2023/07/31 02:07:23;;;;;;;;;;;20.00;69.70;;;;;;5013447;28;20068;-75
2023/07/31 02:09:54;;;;;;;0.10;0.10;;;20.00;69.60;;;;;;5012679;28;19925;-80
2023/07/31 02:12:24;;;;;;;0.40;0.25;;;20.00;69.70;;;;;;5013043;28;20112;-75
2023/07/31 02:14:50;;;;;;;0.30;0.30;;;20.00;69.90;;;;;;5013140;28;20057;-79
2023/07/31 02:17:16;;;;;;;0.13;0.10;;;20.00;70.10;;;;;;5012804;28;20442;-79
2023/07/31 02:20:04;;;;;;;0.13;0.13;;;20.00;70.20;;;;;;5034283;28;20041;-80
2023/07/31 02:22:30;;;;;;;0.10;0.10;;;20.00;70.30;;;;;;5074221;28;20043;-79
2023/07/31 02:24:56;;;;;;;;;;;19.90;70.70;;;;;;5074800;28;20094;-76
2023/07/31 02:27:24;;;;;;;0.43;0.20;;;19.90;70.80;;;;;;5074030;28;19920;-80
2023/07/31 02:30:00;;;;;;;;;;;;;;;;;;;;;
2023/07/31 02:32:26;;;;;;;0.17;0.17;;;19.70;71.00;;;;;;5075277;28;20034;-78
2023/07/31 02:34:52;;;;;;;0.32;0.30;;;19.60;71.00;;;;;;5074135;28;20044;-78
2023/07/31 02:37:18;;;;;;;0.35;0.28;;;19.60;71.00;;;;;;5091881;28;20406;-75
2023/07/31 02:39:44;;;;;;;0.65;0.60;;;19.50;71.00;;;;;;5074410;28;20499;-75
2023/07/31 02:42:13;;;;;;;0.13;0.13;;;19.50;71.00;;;;;;5091473;28;20040;-79
2023/07/31 02:44:42;;;;;;;0.22;0.20;;;19.50;70.90;;;;;;5074674;28;20504;-75
2023/07/31 02:47:08;;;;;;;1.30;0.28;;;19.50;71.00;;;;;;5092511;28;20028;-75
2023/07/31 02:49:34;;;;;;;0.10;0.10;;;19.60;70.90;;;;;;5096156;28;20043;-79
2023/07/31 02:52:00;;;;;;;;;;;19.60;70.70;;;;;;5095950;28;20035;-75
2023/07/31 02:54:27;;;;;;;0.40;0.40;;;19.50;70.60;;;;;;5094338;28;19927;-75
2023/07/31 02:56:55;;;;;;;;;;;19.50;70.70;;;;;;5077602;28;20108;-75
2023/07/31 02:59:22;;;;;;;0.30;0.30;;;19.50;70.60;;;;;;5077375;28;20003;-75
2023/07/31 03:01:48;;;;;;;;;;;19.50;70.70;;;;;;5077605;28;20036;-74
2023/07/31 03:04:29;;;;;;;;;;;;;;;;;;;;;
2023/07/31 03:06:59;;;;;;;0.10;0.10;;;19.50;71.00;;;;;;5062186;28;20399;-75
2023/07/31 03:09:25;;;;;;;0.30;0.30;;;19.50;71.00;;;;;;5077806;28;20028;-79
2023/07/31 03:11:51;;;;;;;0.63;0.40;;;19.50;71.00;;;;;;5113508;28;20391;-75
2023/07/31 03:14:17;;;;;;;;;;;19.60;70.80;;;;;;5097605;28;20444;-76
2023/07/31 03:16:46;;;;;;;0.10;0.10;;;19.60;70.70;;;;;;5097114;28;19919;-79
2023/07/31 03:19:31;;;;;;;0.35;0.35;;;19.60;70.50;;;;;;5097270;28;20499;-79
2023/07/31 03:21:58;;;;;;;0.50;0.50;;;19.60;70.70;;;;;;5096765;28;20036;-75
2023/07/31 03:27:29;;;;;;;0.30;0.20;;;19.70;70.60;;;;;;4984790;28;20061;-75
2023/07/31 03:29:55;;;;;;;;;;;19.70;71.20;;;;;;4996747;28;20122;-80
2023/07/31 03:32:21;;;;;;;0.20;0.20;;;19.70;71.00;;;;;;4995303;28;20382;-75
2023/07/31 03:34:47;;;;;;;0.20;0.20;;;19.70;71.00;;;;;;4996099;28;20489;-79
2023/07/31 03:37:13;;;;;;;0.30;0.25;;;19.70;71.40;;;;;;4995673;28;20455;-79
2023/07/31 03:39:42;;;;;;;;;;;19.70;71.50;;;;;;4996741;28;20141;-79
2023/07/31 03:42:08;;;;;;;0.17;0.17;;;19.70;71.30;;;;;;4995403;28;20449;-79
2023/07/31 03:44:34;;;;;;;;;;;19.80;71.20;;;;;;5012452;28;20557;-79
2023/07/31 03:47:00;;;;;;;0.20;0.20;;;19.80;71.20;;;;;;4995468;28;19921;-79
2023/07/31 03:49:26;;;;;;;;;;;19.80;72.00;;;;;;5012830;28;20045;-80
2023/07/31 03:52:00;;;;;;;1.10;0.20;;;19.80;71.00;;;;;;4995312;28;19922;-76
2023/07/31 03:54:26;;;;;;;1.23;0.40;;;19.80;71.00;;;;;;5012212;28;20048;-75
2023/07/31 03:56:54;;;;;;;;;;;19.80;71.10;;;;;;5046416;28;20051;-79
2023/07/31 03:59:20;;;;;;;0.20;0.20;;;19.90;71.20;;;;;;5114488;28;19969;-80
2023/07/31 04:01:46;;;;;;;;;;;19.80;71.00;;;;;;5114521;28;20080;-79
2023/07/31 04:04:14;;;;;;;0.10;0.10;;;19.90;71.30;;;;;;5096199;28;19919;-79
2023/07/31 04:06:40;;;;;;;0.10;0.10;;;19.90;70.80;;;;;;5112930;28;20038;-79
2023/07/31 04:09:28;;;;;;;;;;;19.90;71.00;;;;;;5114919;28;20434;-79
2023/07/31 04:11:56;;;;;;;0.15;0.15;;;20.00;70.90;;;;;;5114011;28;19919;-80
2023/07/31 04:14:23;;;;;;;0.25;0.22;;;20.10;70.80;;;;;;5096545;28;20489;-79
2023/07/31 04:16:50;;;;;;;0.28;0.28;;;20.00;70.70;;;;;;5113891;28;20119;-74
2023/07/31 04:19:50;;;;;;;0.10;0.10;;;20.10;70.80;;;;;;5114488;28;20027;-75
2023/07/31 04:22:16;;;;;;;0.20;0.20;;;20.20;70.90;;;;;;5113583;28;20063;-75
2023/07/31 04:24:42;;;;;;;;;;;20.20;70.80;;;;;;5096423;28;20032;-79
2023/07/31 04:27:08;;;;;;;0.73;0.63;;;20.30;71.00;;;;;;5095433;28;19919;-78
2023/07/31 04:29:35;;;;;;;0.40;0.40;;;20.30;70.90;;;;;;5095791;28;20089;-75
2023/07/31 04:32:01;;;;;;;;;;;20.30;70.80;;;;;;5095650;28;20050;-79
2023/07/31 04:34:27;;;;;;;0.82;0.52;;;20.30;70.90;;;;;;5095562;28;20268;-80
2023/07/31 04:37:14;;;;;;;0.38;0.28;;;20.30;70.50;;;;;;5095021;28;20024;-75
2023/07/31 04:39:41;;;;;;;0.13;0.13;;;20.40;70.40;;;;;;5095268;28;20539;-74
2023/07/31 04:42:07;;;;;;;0.22;0.22;;;20.40;70.40;;;;;;5094633;28;20039;-75
2023/07/31 04:44:33;;;;;;;;;;;20.50;70.50;;;;;;5114336;28;20102;-80
2023/07/31 04:46:59;;;;;;;0.13;0.13;;;20.50;70.50;;;;;;5094997;28;20399;-74
2023/07/31 04:49:25;;;;;;;0.20;0.20;;;20.60;70.20;;;;;;5095759;28;20391;-79
2023/07/31 04:52:03;;;;;;;;;;;20.60;70.20;;;;;;5113923;28;20065;-79
2023/07/31 04:54:29;;;;;;;0.45;0.40;;;20.60;70.20;;;;;;5078130;28;19919;-74
2023/07/31 04:56:55;;;;;;;;;;;20.70;70.30;;;;;;5095638;28;20031;-80
2023/07/31 04:59:21;;;;;;;0.20;0.15;;;20.70;70.70;;;;;;5095593;28;19957;-76
2023/07/31 05:01:47;;;;;;;;;;;20.70;70.50;;;;;;5113221;28;20040;-74
2023/07/31 05:04:16;;;;;;;0.55;0.35;;;20.70;70.70;;;;;;5094672;28;19957;-74
2023/07/31 05:06:42;;;;;;;0.50;0.50;;;20.70;70.40;;;;;;5094771;28;20039;-80
2023/07/31 05:09:12;;;;;;;0.73;0.73;;;20.70;70.40;;;;;;5113111;28;20434;-80
2023/07/31 05:11:40;;;;;;;0.10;0.10;;;20.80;70.50;;;;;;5077806;28;20400;-80
2023/07/31 05:14:06;;;;;;;0.63;0.47;;;20.80;70.50;;;;;;5095129;28;20410;-80
2023/07/31 05:16:32;;;;;;;0.43;0.30;;;20.80;70.00;;;;;;5094691;28;20036;-79
2023/07/31 05:19:18;;;;;;;;;;;20.80;70.60;;;;;;5078588;28;20024;-79
2023/07/31 05:21:44;;;;;;;0.30;0.30;;;20.90;70.70;;;;;;5112655;28;19919;-74
2023/07/31 05:24:11;;;;;;;0.10;0.10;;;21.00;70.10;;;;;;5094917;28;20028;-75
2023/07/31 05:26:37;;;;;;;0.30;0.30;;;21.10;69.20;;;;;;5094412;28;20434;-79
2023/07/31 05:29:04;;;;;;;0.45;0.40;;;21.20;69.70;;;;;;5113340;28;20043;-79
2023/07/31 05:31:32;;;;;;;0.20;0.20;;;21.30;70.20;;;;;;5094194;28;20437;-79
2023/07/31 05:33:58;;;;;;;0.10;0.10;;;21.30;70.30;;;;;;5113125;28;20042;-74
2023/07/31 05:36:24;;;;;;;0.20;0.20;;;21.40;69.40;;;;;;5112555;28;20507;-74
2023/07/31 05:38:50;;;;;;;;;;;21.40;69.70;;;;;;5095380;28;20089;-74
2023/07/31 05:41:16;;;;;;;0.20;0.20;;;21.50;70.00;;;;;;5094164;28;19911;-78
2023/07/31 05:43:43;;;;;;;;;;;21.60;69.30;;;;;;5113717;28;20047;-78
2023/07/31 05:46:09;;;;;;;3.70;1.77;;;21.60;69.60;;;;;;5112449;28;19912;-75
2023/07/31 05:48:36;;;;;;;0.22;0.17;;;21.70;68.50;;;;;;5094579;28;20548;-80
2023/07/31 05:51:02;;;;;;;0.30;0.30;;;21.70;68.90;;;;;;5111420;28;20044;-80
2023/07/31 05:53:28;;;;;;;3.10;0.50;;;21.80;68.90;;;;;;5111491;28;20136;-79
2023/07/31 05:55:54;;;;;;;0.30;0.20;;;21.80;68.90;;;;;;5093877;28;20503;-74
2023/07/31 05:58:20;;;;;;;;;;;21.80;69.10;;;;;;5113666;28;20352;-79
2023/07/31 06:00:46;;;;;;;0.20;0.20;;;21.80;69.30;;;;;;5111998;28;19918;-79
2023/07/31 06:03:12;;;;;;;;;;;21.70;69.20;;;;;;5113078;28;20042;-74
2023/07/31 06:05:40;;;;;;;0.10;0.10;;;21.70;69.50;;;;;;5112239;28;20395;-78
2023/07/31 06:08:07;;;;;;;0.10;0.10;;;21.60;68.90;;;;;;5111167;28;20480;-79
2023/07/31 06:10:33;;;;;;;0.20;0.20;;;21.70;68.90;;;;;;5110789;28;20056;-80
2023/07/31 06:13:00;;;;;;;1.65;0.40;;;21.60;68.80;;;;;;5094379;28;20035;-73
2023/07/31 06:15:35;;;;;;;;;;;21.60;69.20;;;;;;5112655;28;20530;-79
2023/07/31 06:18:01;;;;;;;0.45;0.25;;;21.60;69.30;;;;;;5093381;28;20349;-80
2023/07/31 06:20:28;;;;;;;0.20;0.20;;;21.60;69.30;;;;;;5094117;28;20024;-79
2023/07/31 06:22:54;;;;;;;0.20;0.20;;;21.70;68.50;;;;;;5114604;28;20413;-79
2023/07/31 06:25:21;;;;;;;0.32;0.32;;;21.90;68.40;;;;;;5097969;28;20047;-74
2023/07/31 06:27:47;;;;;;;0.50;0.50;;;22.10;67.20;;;;;;5098005;28;20106;-79
2023/07/31 06:30:13;;;;;;;;;;;22.40;67.20;;;;;;5098126;28;20039;-79
2023/07/31 06:32:40;;;;;;;0.35;0.20;;;22.60;67.10;;;;;;5097872;28;19981;-80
2023/07/31 06:35:18;;;;;;;0.20;0.20;;;22.70;66.10;;;;;;5097690;28;20085;-74
2023/07/31 06:37:44;;;;;;;0.45;0.30;;;22.90;66.00;;;;;;5115108;28;20036;-74
2023/07/31 06:40:30;;;;;;;0.10;0.10;;;23.00;65.80;;;;;;5115742;28;20390;-74
2023/07/31 06:42:56;;;;;;;0.55;0.55;;;23.00;65.70;;;;;;5116348;28;20387;-74
2023/07/31 06:45:24;;;;;;;;;;;23.10;65.30;;;;;;5097719;28;20024;-74
2023/07/31 06:47:50;;;;;;;0.28;0.28;;;23.20;65.30;;;;;;5097860;28;19928;-78
2023/07/31 06:50:16;;;;;;;0.28;0.20;;;23.30;65.00;;;;;;5115652;28;20032;-74
2023/07/31 06:52:42;;;;;;;0.10;0.10;;;23.40;64.60;;;;;;5114598;28;20089;-79
2023/07/31 06:55:27;;;;;;;;;;;23.50;63.90;;;;;;5115847;28;20039;-78
2023/07/31 06:57:57;;;;;;;0.20;0.20;;;23.60;63.90;;;;;;5096613;28;19919;-78
2023/07/31 07:00:23;;;;;;;0.85;0.50;;;23.70;62.90;;;;;;5092994;28;20043;-78
2023/07/31 07:02:57;;;;;;;0.65;0.50;;;23.80;62.00;;;;;;5115431;28;20135;-74
2023/07/31 07:05:42;;;;;;;0.35;0.32;;;24.00;61.20;;;;;;5096916;28;20084;-74
2023/07/31 07:08:10;;;;;;;0.40;0.35;;;24.30;61.30;;;;;;5097240;28;20042;-74
2023/07/31 07:10:37;;;;;;;0.43;0.22;;;24.40;60.70;;;;;;5096777;28;20070;-78
2023/07/31 07:13:03;;;;;;;0.20;0.20;;;24.60;59.60;;;;;;5097221;28;20039;-74
2023/07/31 07:15:29;;;;;;;0.20;0.20;;;24.80;59.70;;;;;;5096739;28;20044;-79
2023/07/31 07:17:56;;;;;;;0.43;0.20;;;25.00;59.00;;;;;;5097080;28;20028;-78
2023/07/31 07:20:22;;;;;;;0.28;0.20;;;25.20;58.00;;;;;;5115162;28;20081;-74
2023/07/31 07:22:48;;;;;;;0.20;0.20;;;25.30;57.20;;;;;;5096944;28;20035;-78
2023/07/31 07:25:14;;;;;;;0.20;0.20;;;25.60;56.80;;;;;;5096516;28;20046;-73
2023/07/31 07:27:42;;;;;;;0.15;0.15;;;25.80;56.10;;;;;;5096804;28;20039;-79
2023/07/31 07:30:09;;;;;;;0.30;0.30;;;26.00;56.10;;;;;;5113293;28;20028;-73
2023/07/31 07:32:45;;;;;;;0.55;0.55;;;26.00;55.10;;;;;;5096376;28;20111;-78
2023/07/31 07:37:58;;;;;;;;;;;26.00;54.50;;;;;;5098992;28;20038;-79
2023/07/31 07:40:24;;;;;;;0.40;0.30;;;26.00;55.70;;;;;;5096478;28;19938;-78
2023/07/31 07:42:50;;;;;;;0.10;0.10;;;26.00;54.30;;;;;;5079591;28;20066;-78
2023/07/31 07:45:26;;;;;;;0.60;0.28;;;26.00;54.20;;;;;;5096241;28;20042;-74
2023/07/31 07:47:59;;;;;;;0.47;0.47;;;26.00;54.20;;;;;;5096406;28;20526;-79
2023/07/31 07:50:25;;;;;;;0.30;0.30;;;26.00;53.70;;;;;;5096295;28;20031;-80
2023/07/31 07:53:12;;;;;;;0.30;0.30;;;26.00;53.80;;;;;;5096334;28;20067;-74
2023/07/31 07:55:38;;;;;;;0.10;0.10;;;26.10;53.70;;;;;;5094182;28;20407;-78
2023/07/31 07:58:04;;;;;;;0.45;0.40;;;26.10;53.60;;;;;;5096390;28;20036;-73
2023/07/31 08:00:30;;;;;;;0.35;0.20;;;26.20;53.80;;;;;;5095815;28;20030;-74
2023/07/31 08:02:58;;;;;;;0.50;0.43;;;26.20;52.80;;;;;;5095844;28;20073;-78
2023/07/31 08:05:24;;;;;;;0.20;0.20;;;26.30;52.70;;;;;;5096106;28;20036;-77
2023/07/31 08:10:48;;;;;;;0.20;0.20;;;26.30;52.40;;;;;;5069065;28;20112;-73
2023/07/31 08:13:14;;;;;;;0.20;0.20;;;26.40;52.30;;;;;;5096077;28;20044;-78
2023/07/31 08:15:43;;;;;;;0.20;0.20;;;26.50;51.70;;;;;;5113706;28;20050;-78
2023/07/31 08:18:28;;;;;;;0.32;0.30;;;26.60;51.50;;;;;;5096069;28;20388;-78
2023/07/31 08:20:54;;;;;;;0.30;0.30;;;26.90;51.20;;;;;;5095350;28;20031;-78
2023/07/31 08:23:20;;;;;;;1.20;0.82;;;27.20;50.80;;;;;;5113900;28;20031;-74
2023/07/31 08:26:06;;;;;;;0.45;0.38;;;27.50;49.30;;;;;;5112182;28;20055;-74
2023/07/31 08:28:43;;;;;;;;;;;;;;;;;;;;;
2023/07/31 08:31:19;;;;;;;0.28;0.28;;;28.10;44.70;;;;;;5070223;28;20063;-74
2023/07/31 08:33:45;;;;;;;0.35;0.25;;;28.50;45.10;;;;;;5070771;28;20053;-77
2023/07/31 08:36:14;;;;;;;0.35;0.35;;;29.10;44.20;;;;;;5070232;28;20123;-78
2023/07/31 08:38:40;;;;;;;0.82;0.70;;;29.70;43.30;;;;;;5070841;28;20072;-74
2023/07/31 08:41:06;;;;;;;0.28;0.28;;;30.30;43.00;;;;;;5070199;28;20091;-73
2023/07/31 08:43:33;;;;;;;0.40;0.40;;;30.80;42.10;;;;;;5070499;28;20401;-75
2023/07/31 08:46:00;;;;;;;0.20;0.20;;;31.50;40.20;;;;;;5069695;28;20041;-79
2023/07/31 08:48:35;;;;;;;2.03;0.40;;;32.00;39.60;;;;;;5053918;28;20045;-79
2023/07/31 08:51:01;;;;;;;0.52;0.45;;;32.70;38.10;;;;;;5053477;28;20385;-80
2023/07/31 08:53:43;;;;;;;0.95;0.73;;;33.50;37.90;;;;;;5070508;28;20044;-76
2023/07/31 08:56:25;;;;;;;0.20;0.20;;;34.30;37.00;;;;;;5069995;28;20439;-76
2023/07/31 08:58:54;;;;;;;0.38;0.38;;;34.80;34.50;;;;;;5070451;28;20045;-80
2023/07/31 09:01:21;;;;;;;1.55;0.90;;;35.50;33.40;;;;;;5069789;28;20174;-80
2023/07/31 09:03:50;;;;;;;0.85;0.35;;;36.10;32.10;;;;;;5053645;28;20516;-76
2023/07/31 09:06:20;;;;;;;0.40;0.40;;;36.70;30.60;;;;;;5053302;28;20037;-75
2023/07/31 09:09:01;;;;;;;0.60;0.60;;;37.40;29.40;;;;;;5070677;28;20036;-77
2023/07/31 09:11:29;;;;;;;0.40;0.40;;;38.00;28.60;;;;;;5094614;28;20058;-81
2023/07/31 09:13:58;;;;;;;0.40;0.40;;;38.50;28.40;;;;;;5095154;28;20070;-77
2023/07/31 09:17:22;;;;;;;0.50;0.50;;;39.00;26.60;;;;;;5113080;28;20035;-76
2023/07/31 09:19:47;;;;;;;1.25;1.00;;;39.80;25.80;;;;;;5112695;28;20043;-81
2023/07/31 09:22:13;;;;;;;0.47;0.47;;;40.40;25.70;;;;;;5094644;28;20028;-80
2023/07/31 09:24:39;;;;;;;0.60;0.60;;;40.90;24.50;;;;;;5113055;28;20046;-76
2023/07/31 09:27:06;;;;;;;0.55;0.55;;;41.30;24.30;;;;;;5094399;28;20024;-76
2023/07/31 09:29:32;;;;;;;0.60;0.60;;;41.80;23.00;;;;;;5094859;28;20144;-76
2023/07/31 09:31:58;;;;;;;0.60;0.60;;;42.30;22.70;;;;;;5094205;28;20069;-77
2023/07/31 09:34:43;;;;;;;0.57;0.57;;;42.80;22.00;;;;;;5094363;28;20120;-80
2023/07/31 09:37:31;;;;;;;0.77;0.77;;;43.00;21.70;;;;;;5112245;28;20080;-80
2023/07/31 09:40:06;;;;;;;0.68;0.68;;;43.50;21.00;;;;;;5094897;28;20495;-80
2023/07/31 09:42:37;;;;;;;0.65;0.65;;;43.30;21.30;;;;;;5094292;28;20041;-81
2023/07/31 09:45:22;;;;;;;0.70;0.70;;;43.70;20.80;;;;;;5078372;28;20054;-80
2023/07/31 09:47:49;;;;;;;0.80;0.80;;;43.40;20.00;;;;;;5094598;28;20035;-77
2023/07/31 09:50:16;;;;;;;0.70;0.70;;;44.10;20.10;;;;;;5094321;28;20054;-80
2023/07/31 09:52:43;;;;;;;1.02;0.90;;;44.70;19.80;;;;;;5094670;28;20035;-79
2023/07/31 09:55:10;;;;;;;0.73;0.73;;;44.40;19.20;;;;;;5112246;28;20032;-81
2023/07/31 09:57:56;;;;;;;1.00;0.90;;;43.90;19.70;;;;;;5081060;28;20035;-75
2023/07/31 10:00:25;;;;;;;0.77;0.77;;;44.40;19.00;;;;;;5098250;28;20036;-77
2023/07/31 10:02:52;;;;;;;1.08;0.98;;;45.10;19.00;;;;;;5081735;28;20040;-76
2023/07/31 10:05:21;;;;;;;0.85;0.85;;;45.70;18.30;;;;;;5081077;28;20036;-76
2023/07/31 10:08:08;;;;;;;14.02;2.13;;;46.30;18.10;;;;;;5098456;28;20031;-76
2023/07/31 10:10:54;;;;;;;0.82;0.82;;;46.70;17.50;;;;;;5080804;28;20056;-77
2023/07/31 10:13:22;;;;;;;1.45;0.90;;;46.90;16.80;;;;;;5098490;28;20039;-76
2023/07/31 10:15:48;;;;;;;0.70;0.70;;;47.10;17.20;;;;;;5098104;28;20097;-81
2023/07/31 10:18:37;;;;;;;1.05;1.00;;;47.30;16.60;;;;;;5098472;28;20040;-77
2023/07/31 10:21:06;;;;;;;1.48;1.38;;;47.40;16.30;;;;;;5098977;28;20066;-77
2023/07/31 10:23:40;;;;;;;1.17;1.08;;;47.70;16.20;;;;;;5098049;28;20028;-76
2023/07/31 10:26:08;;;;;;;1.38;1.10;;;48.20;16.70;;;;;;5097979;28;20028;-76
2023/07/31 10:28:39;;;;;;;1.00;0.95;;;48.50;15.70;;;;;;5098211;28;20488;-82
2023/07/31 10:31:25;;;;;;;1.23;1.13;;;49.10;15.80;;;;;;5097567;28;20031;-81
2023/07/31 10:33:58;;;;;;;1.27;1.17;;;49.60;14.80;;;;;;5081146;28;20027;-76
2023/07/31 10:36:25;;;;;;;1.20;1.10;;;49.80;13.40;;;;;;5098059;28;20429;-80
2023/07/31 10:38:51;;;;;;;2.10;1.90;;;49.90;13.80;;;;;;5116455;28;20028;-76
2023/07/31 10:41:28;;;;;;;1.42;1.33;;;50.50;13.30;;;;;;5115530;28;20031;-77
2023/07/31 10:44:26;;;;;;;1.70;1.60;;;50.80;13.20;;;;;;5080923;28;20046;-81
2023/07/31 10:46:55;;;;;;;1.50;1.40;;;50.60;13.30;;;;;;5080516;28;20499;-80
2023/07/31 10:49:21;;;;;;;1.40;1.30;;;50.20;14.00;;;;;;5116308;28;20089;-80
2023/07/31 10:51:48;;;;;;;1.40;1.30;;;49.90;14.10;;;;;;5097181;28;20020;-81
2023/07/31 10:54:18;;;;;;;2.38;1.90;;;49.30;14.60;;;;;;5097645;28;20039;-81
2023/07/31 10:57:19;;;;;;;2.00;1.80;;;48.60;14.50;;;;;;5115682;28;20027;-76
2023/07/31 10:59:45;;;;;;;2.35;1.95;;;47.40;15.00;;;;;;5097416;28;20480;-80
2023/07/31 11:02:31;;;;;;;1.52;1.42;;;47.60;15.10;;;;;;5096917;28;20492;-76
2023/07/31 11:05:15;;;;;;;1.30;1.20;;;47.50;15.00;;;;;;5098448;28;20469;-80
2023/07/31 11:08:00;;;;;;;2.42;1.13;;;47.40;15.00;;;;;;5114810;28;20031;-75
2023/07/31 11:10:26;;;;;;;2.10;1.67;;;47.00;16.20;;;;;;5093369;28;20455;-75
2023/07/31 11:12:53;;;;;;;1.10;1.00;;;46.40;16.10;;;;;;5095251;28;20469;-78
2023/07/31 11:15:19;;;;;;;1.20;1.10;;;46.40;16.20;;;;;;5093418;28;20085;-78
2023/07/31 11:17:45;;;;;;;1.58;1.35;;;46.40;15.90;;;;;;5095169;28;20032;-79
2023/07/31 11:20:11;;;;;;;1.10;1.00;;;46.40;16.80;;;;;;5093350;28;20040;-75
2023/07/31 11:22:37;;;;;;;0.95;0.90;;;46.30;16.70;;;;;;5076737;28;20396;-75
2023/07/31 11:25:04;;;;;;;1.33;1.23;;;45.70;17.60;;;;;;5093504;28;20081;-76
2023/07/31 11:27:30;;;;;;;1.38;1.08;;;45.50;17.60;;;;;;5094421;28;20060;-80
2023/07/31 11:30:15;;;;;;;1.20;1.10;;;45.10;18.00;;;;;;5094933;28;20077;-76
2023/07/31 11:32:41;;;;;;;0.90;0.90;;;44.50;18.10;;;;;;5093307;28;20139;-75
2023/07/31 11:35:08;;;;;;;0.98;0.90;;;43.50;18.00;;;;;;5094350;28;20036;-75
2023/07/31 11:37:59;;;;;;;1.00;0.80;;;43.90;17.70;;;;;;5093649;28;20392;-81
2023/07/31 11:40:37;;;;;;;1.23;0.98;;;44.30;17.80;;;;;;5092924;28;20473;-80
2023/07/31 11:43:07;;;;;;;0.80;0.80;;;45.20;17.50;;;;;;5094797;28;20488;-77
2023/07/31 11:45:35;;;;;;;0.70;0.70;;;44.90;17.50;;;;;;5094186;28;20109;-76
2023/07/31 11:48:39;;;;;;;1.00;0.90;;;43.90;17.70;;;;;;5093336;28;20051;-76
2023/07/31 11:51:10;;;;;;;1.00;1.00;;;42.30;18.70;;;;;;5092890;28;20036;-75
2023/07/31 11:53:58;;;;;;;1.92;0.90;;;41.20;19.30;;;;;;5093343;28;20465;-75
2023/07/31 11:56:24;;;;;;;0.65;0.65;;;40.50;20.30;;;;;;5092676;28;20420;-75
2023/07/31 11:58:57;;;;;;;0.57;0.57;;;40.60;21.10;;;;;;5076297;28;20032;-76
2023/07/31 12:01:32;;;;;;;1.27;1.13;;;40.70;21.10;;;;;;5092606;28;20032;-75
2023/07/31 12:03:59;;;;;;;1.02;0.90;;;41.80;20.80;;;;;;5092642;28;20032;-75
2023/07/31 12:06:44;;;;;;;0.88;0.80;;;42.50;20.00;;;;;;5093886;28;20537;-75
2023/07/31 12:09:10;;;;;;;0.63;0.63;;;43.20;19.30;;;;;;5092755;28;20073;-75
2023/07/31 12:11:46;;;;;;;1.35;0.98;;;43.50;17.70;;;;;;5092222;28;20059;-79
2023/07/31 12:14:22;;;;;;;1.00;0.90;;;43.30;19.20;;;;;;5092676;28;20500;-77
2023/07/31 12:16:53;;;;;;;;;;;42.80;19.20;;;;;;5093096;28;20419;-79
2023/07/31 12:19:20;;;;;;;0.65;0.65;;;41.80;19.20;;;;;;5092650;28;19973;-79
2023/07/31 12:21:46;;;;;;;0.50;0.50;;;41.40;19.70;;;;;;5092230;28;20083;-83
2023/07/31 12:24:12;;;;;;;0.60;0.60;;;41.90;20.20;;;;;;5092424;28;20028;-76
2023/07/31 12:26:38;;;;;;;0.75;0.73;;;43.30;19.60;;;;;;5092105;28;20056;-75
2023/07/31 12:29:20;;;;;;;0.50;0.50;;;44.80;18.60;;;;;;5092535;28;20047;-75
2023/07/31 12:31:45;;;;;;;0.80;0.80;;;46.40;16.90;;;;;;5091800;28;20389;-76
2023/07/31 12:34:30;;;;;;;0.88;0.88;;;47.20;15.80;;;;;;5092286;28;20047;-75
2023/07/31 12:36:56;;;;;;;1.27;1.05;;;47.40;16.00;;;;;;5092119;28;20047;-77
2023/07/31 12:39:44;;;;;;;0.90;0.90;;;47.10;16.00;;;;;;5092272;28;20040;-75
2023/07/31 12:42:10;;;;;;;0.60;0.60;;;46.40;16.10;;;;;;5030206;28;20049;-79
2023/07/31 12:44:36;;;;;;;1.15;1.05;;;45.70;15.90;;;;;;5014349;28;20033;-79
2023/07/31 12:47:17;;;;;;;0.70;0.70;;;45.90;15.90;;;;;;5013180;28;20088;-80
2023/07/31 12:49:43;;;;;;;0.80;0.80;;;47.00;16.30;;;;;;5014420;28;20398;-75
2023/07/31 12:52:09;;;;;;;1.08;1.00;;;47.70;14.90;;;;;;5013466;28;20033;-76
2023/07/31 12:54:35;;;;;;;1.45;1.20;;;46.90;15.30;;;;;;5030706;28;20041;-76
2023/07/31 12:57:01;;;;;;;1.02;0.95;;;46.60;15.50;;;;;;4997162;28;20052;-82
2023/07/31 12:59:27;;;;;;;0.90;0.90;;;46.50;16.20;;;;;;5030500;28;20458;-76
2023/07/31 13:01:53;;;;;;;0.90;0.90;;;45.20;16.50;;;;;;5013406;28;20084;-76
2023/07/31 13:04:19;;;;;;;0.80;0.80;;;44.00;17.10;;;;;;5014050;28;20064;-80
2023/07/31 13:06:53;;;;;;;1.00;0.90;;;43.10;18.30;;;;;;5029729;28;20099;-74
2023/07/31 13:09:19;;;;;;;0.60;0.60;;;42.80;18.80;;;;;;5013888;28;20057;-80
2023/07/31 13:12:12;;;;;;;0.68;0.68;;;43.70;18.40;;;;;;5013640;28;20049;-80
2023/07/31 13:14:38;;;;;;;0.75;0.75;;;43.20;18.10;;;;;;5030377;28;20052;-80
2023/07/31 13:17:04;;;;;;;0.85;0.70;;;42.20;18.70;;;;;;5013298;28;20113;-79
2023/07/31 13:19:31;;;;;;;2.40;0.98;;;41.20;19.50;;;;;;5041839;28;20046;-77
2023/07/31 13:22:00;;;;;;;0.88;0.88;;;42.30;18.80;;;;;;5074229;28;20377;-79
2023/07/31 13:24:26;;;;;;;0.85;0.80;;;44.50;18.00;;;;;;5074626;28;20377;-83
2023/07/31 13:27:13;;;;;;;1.25;0.77;;;46.60;16.40;;;;;;5092331;28;20105;-80
2023/07/31 13:29:42;;;;;;;0.82;0.82;;;47.80;15.40;;;;;;5092916;28;20028;-75